sensor_id;sensor_type;location;lat;lon;timestamp;temperature;humidity
25504;DHT22;13410;52.114;5.718;2024-02-26T00:01:27;9.00;99.90
25504;DHT22;13410;52.114;5.718;2024-02-26T00:03:53;9.00;99.90
25504;DHT22;13410;52.114;5.718;2024-02-26T00:06:19;9.10;99.90
25504;DHT22;13410;52.114;5.718;2024-02-26T00:08:45;8.90;99.90
25504;DHT22;13410;52.114;5.718;2024-02-26T00:11:11;9.00;99.90
25504;DHT22;13410;52.114;5.718;2024-02-26T00:13:37;9.00;99.90
25504;DHT22;13410;52.114;5.718;2024-02-26T00:16:04;9.00;99.90
25504;DHT22;13410;52.114;5.718;2024-02-26T00:18:29;9.00;99.90
25504;DHT22;13410;52.114;5.718;2024-02-26T00:20:55;8.90;99.90
25504;DHT22;13410;52.114;5.718;2024-02-26T00:23:21;8.90;99.90
25504;DHT22;13410;52.114;5.718;2024-02-26T00:25:47;9.00;99.90
25504;DHT22;13410;52.114;5.718;2024-02-26T00:28:13;8.90;99.90
25504;DHT22;13410;52.114;5.718;2024-02-26T00:30:39;8.90;99.90
25504;DHT22;13410;52.114;5.718;2024-02-26T00:33:06;8.70;99.90
25504;DHT22;13410;52.114;5.718;2024-02-26T00:35:31;8.70;99.90
25504;DHT22;13410;52.114;5.718;2024-02-26T00:37:57;8.60;99.90
25504;DHT22;13410;52.114;5.718;2024-02-26T00:40:24;8.50;99.90
25504;DHT22;13410;52.114;5.718;2024-02-26T00:42:49;8.30;99.90
25504;DHT22;13410;52.114;5.718;2024-02-26T00:45:15;8.40;99.90
25504;DHT22;13410;52.114;5.718;2024-02-26T00:47:42;8.40;99.90
25504;DHT22;13410;52.114;5.718;2024-02-26T00:50:08;8.40;99.90
25504;DHT22;13410;52.114;5.718;2024-02-26T00:52:34;8.30;99.90
25504;DHT22;13410;52.114;5.718;2024-02-26T00:55:00;8.30;99.90
25504;DHT22;13410;52.114;5.718;2024-02-26T00:57:26;8.30;99.90
25504;DHT22;13410;52.114;5.718;2024-02-26T00:59:51;8.10;99.90
25504;DHT22;13410;52.114;5.718;2024-02-26T01:02:18;8.30;99.90
25504;DHT22;13410;52.114;5.718;2024-02-26T01:04:44;8.30;99.90
25504;DHT22;13410;52.114;5.718;2024-02-26T01:07:09;8.10;99.90
25504;DHT22;13410;52.114;5.718;2024-02-26T01:09:35;8.00;99.90
25504;DHT22;13410;52.114;5.718;2024-02-26T01:12:01;8.00;99.90
25504;DHT22;13410;52.114;5.718;2024-02-26T01:14:28;8.10;99.90
25504;DHT22;13410;52.114;5.718;2024-02-26T01:16:53;8.00;99.90
25504;DHT22;13410;52.114;5.718;2024-02-26T01:19:19;8.10;99.90
25504;DHT22;13410;52.114;5.718;2024-02-26T01:21:45;8.10;99.90
25504;DHT22;13410;52.114;5.718;2024-02-26T01:24:10;8.00;99.90
25504;DHT22;13410;52.114;5.718;2024-02-26T01:26:36;8.10;99.90
25504;DHT22;13410;52.114;5.718;2024-02-26T01:29:03;8.00;99.90
25504;DHT22;13410;52.114;5.718;2024-02-26T01:31:28;7.90;99.90
25504;DHT22;13410;52.114;5.718;2024-02-26T01:33:54;7.80;99.90
25504;DHT22;13410;52.114;5.718;2024-02-26T01:36:20;7.80;99.90
25504;DHT22;13410;52.114;5.718;2024-02-26T01:38:46;7.80;99.90
25504;DHT22;13410;52.114;5.718;2024-02-26T01:41:13;8.00;99.90
25504;DHT22;13410;52.114;5.718;2024-02-26T01:43:39;7.90;99.90
25504;DHT22;13410;52.114;5.718;2024-02-26T01:46:05;7.70;99.90
25504;DHT22;13410;52.114;5.718;2024-02-26T01:48:31;7.60;99.90
25504;DHT22;13410;52.114;5.718;2024-02-26T01:50:57;7.60;99.90
25504;DHT22;13410;52.114;5.718;2024-02-26T01:53:23;7.60;99.90
25504;DHT22;13410;52.114;5.718;2024-02-26T01:55:50;7.80;99.90
25504;DHT22;13410;52.114;5.718;2024-02-26T01:58:16;7.80;99.90
25504;DHT22;13410;52.114;5.718;2024-02-26T02:00:42;7.70;99.90
25504;DHT22;13410;52.114;5.718;2024-02-26T02:03:07;7.90;99.90
25504;DHT22;13410;52.114;5.718;2024-02-26T02:05:34;8.00;99.90
25504;DHT22;13410;52.114;5.718;2024-02-26T02:08:00;8.00;99.90
25504;DHT22;13410;52.114;5.718;2024-02-26T02:10:26;8.30;99.90
25504;DHT22;13410;52.114;5.718;2024-02-26T02:12:53;8.30;99.90
25504;DHT22;13410;52.114;5.718;2024-02-26T02:15:18;8.30;99.90
25504;DHT22;13410;52.114;5.718;2024-02-26T02:17:44;8.30;99.90
25504;DHT22;13410;52.114;5.718;2024-02-26T02:20:15;8.20;99.90
25504;DHT22;13410;52.114;5.718;2024-02-26T02:22:42;8.20;99.90
25504;DHT22;13410;52.114;5.718;2024-02-26T02:25:08;8.30;99.90
25504;DHT22;13410;52.114;5.718;2024-02-26T02:27:33;8.10;99.90
25504;DHT22;13410;52.114;5.718;2024-02-26T02:29:59;7.90;99.90
25504;DHT22;13410;52.114;5.718;2024-02-26T02:32:25;8.00;99.90
25504;DHT22;13410;52.114;5.718;2024-02-26T02:34:52;8.00;99.90
25504;DHT22;13410;52.114;5.718;2024-02-26T02:37:17;8.00;99.90
25504;DHT22;13410;52.114;5.718;2024-02-26T02:39:44;8.20;99.90
25504;DHT22;13410;52.114;5.718;2024-02-26T02:42:10;8.40;99.90
25504;DHT22;13410;52.114;5.718;2024-02-26T02:44:36;8.50;99.90
25504;DHT22;13410;52.114;5.718;2024-02-26T02:47:03;8.30;99.90
25504;DHT22;13410;52.114;5.718;2024-02-26T02:49:28;8.30;99.90
25504;DHT22;13410;52.114;5.718;2024-02-26T02:51:54;8.40;99.90
25504;DHT22;13410;52.114;5.718;2024-02-26T02:54:20;8.40;99.90
25504;DHT22;13410;52.114;5.718;2024-02-26T02:56:46;8.40;99.90
25504;DHT22;13410;52.114;5.718;2024-02-26T02:59:11;8.50;99.90
25504;DHT22;13410;52.114;5.718;2024-02-26T03:01:37;8.50;99.90
25504;DHT22;13410;52.114;5.718;2024-02-26T03:04:02;8.60;99.90
25504;DHT22;13410;52.114;5.718;2024-02-26T03:06:28;8.50;99.90
25504;DHT22;13410;52.114;5.718;2024-02-26T03:08:54;8.60;99.90
25504;DHT22;13410;52.114;5.718;2024-02-26T03:11:20;8.50;99.90
25504;DHT22;13410;52.114;5.718;2024-02-26T03:13:46;8.50;99.90
25504;DHT22;13410;52.114;5.718;2024-02-26T03:16:11;8.60;99.90
25504;DHT22;13410;52.114;5.718;2024-02-26T03:18:40;8.80;99.90
25504;DHT22;13410;52.114;5.718;2024-02-26T03:21:07;8.70;99.90
25504;DHT22;13410;52.114;5.718;2024-02-26T03:23:32;8.60;99.90
25504;DHT22;13410;52.114;5.718;2024-02-26T03:26:03;8.60;99.90
25504;DHT22;13410;52.114;5.718;2024-02-26T03:28:29;8.70;99.90
25504;DHT22;13410;52.114;5.718;2024-02-26T03:30:55;8.50;99.90
25504;DHT22;13410;52.114;5.718;2024-02-26T03:33:20;8.50;99.90
25504;DHT22;13410;52.114;5.718;2024-02-26T03:35:46;8.50;99.90
25504;DHT22;13410;52.114;5.718;2024-02-26T03:38:11;8.30;99.90
25504;DHT22;13410;52.114;5.718;2024-02-26T03:40:37;8.40;99.90
25504;DHT22;13410;52.114;5.718;2024-02-26T03:43:03;8.30;99.90
25504;DHT22;13410;52.114;5.718;2024-02-26T03:45:30;8.40;99.90
25504;DHT22;13410;52.114;5.718;2024-02-26T03:47:55;8.30;99.90
25504;DHT22;13410;52.114;5.718;2024-02-26T03:50:21;8.40;99.90
25504;DHT22;13410;52.114;5.718;2024-02-26T03:52:46;8.30;99.90
25504;DHT22;13410;52.114;5.718;2024-02-26T03:55:12;8.20;99.90
25504;DHT22;13410;52.114;5.718;2024-02-26T03:57:37;8.30;99.90
25504;DHT22;13410;52.114;5.718;2024-02-26T04:00:04;8.20;99.90
25504;DHT22;13410;52.114;5.718;2024-02-26T04:02:30;8.30;99.90
25504;DHT22;13410;52.114;5.718;2024-02-26T04:04:56;8.10;99.90
25504;DHT22;13410;52.114;5.718;2024-02-26T04:07:22;8.30;99.90
25504;DHT22;13410;52.114;5.718;2024-02-26T04:09:48;8.10;99.90
25504;DHT22;13410;52.114;5.718;2024-02-26T04:12:14;8.30;99.90
25504;DHT22;13410;52.114;5.718;2024-02-26T04:14:39;8.20;99.90
25504;DHT22;13410;52.114;5.718;2024-02-26T04:17:05;8.00;99.90
25504;DHT22;13410;52.114;5.718;2024-02-26T04:19:30;8.10;99.90
25504;DHT22;13410;52.114;5.718;2024-02-26T04:21:56;8.10;99.90
25504;DHT22;13410;52.114;5.718;2024-02-26T04:24:22;8.20;99.90
25504;DHT22;13410;52.114;5.718;2024-02-26T04:26:47;7.80;99.90
25504;DHT22;13410;52.114;5.718;2024-02-26T04:29:15;7.80;99.90
25504;DHT22;13410;52.114;5.718;2024-02-26T04:31:40;7.90;99.90
25504;DHT22;13410;52.114;5.718;2024-02-26T04:34:08;8.00;99.90
25504;DHT22;13410;52.114;5.718;2024-02-26T04:36:33;7.80;99.90
25504;DHT22;13410;52.114;5.718;2024-02-26T04:38:59;7.70;99.90
25504;DHT22;13410;52.114;5.718;2024-02-26T04:41:26;7.80;99.90
25504;DHT22;13410;52.114;5.718;2024-02-26T04:43:52;7.70;99.90
25504;DHT22;13410;52.114;5.718;2024-02-26T04:46:18;7.80;99.90
25504;DHT22;13410;52.114;5.718;2024-02-26T04:48:45;7.80;99.90
25504;DHT22;13410;52.114;5.718;2024-02-26T04:51:13;7.70;99.90
25504;DHT22;13410;52.114;5.718;2024-02-26T04:53:39;7.60;99.90
25504;DHT22;13410;52.114;5.718;2024-02-26T04:56:04;7.60;99.90
25504;DHT22;13410;52.114;5.718;2024-02-26T04:58:30;7.60;99.90
25504;DHT22;13410;52.114;5.718;2024-02-26T05:00:56;7.70;99.90
25504;DHT22;13410;52.114;5.718;2024-02-26T05:03:21;7.80;99.90
25504;DHT22;13410;52.114;5.718;2024-02-26T05:05:47;7.80;99.90
25504;DHT22;13410;52.114;5.718;2024-02-26T05:08:13;7.70;99.90
25504;DHT22;13410;52.114;5.718;2024-02-26T05:10:38;7.80;99.90
25504;DHT22;13410;52.114;5.718;2024-02-26T05:13:09;7.80;99.90
25504;DHT22;13410;52.114;5.718;2024-02-26T05:15:35;7.80;99.90
25504;DHT22;13410;52.114;5.718;2024-02-26T05:18:01;7.70;99.90
25504;DHT22;13410;52.114;5.718;2024-02-26T05:20:28;7.70;99.90
25504;DHT22;13410;52.114;5.718;2024-02-26T05:22:54;7.60;99.90
25504;DHT22;13410;52.114;5.718;2024-02-26T05:25:19;7.70;99.90
25504;DHT22;13410;52.114;5.718;2024-02-26T05:27:45;7.70;99.90
25504;DHT22;13410;52.114;5.718;2024-02-26T05:30:11;7.80;99.90
25504;DHT22;13410;52.114;5.718;2024-02-26T05:32:37;7.80;99.90
25504;DHT22;13410;52.114;5.718;2024-02-26T05:35:03;8.00;99.90
25504;DHT22;13410;52.114;5.718;2024-02-26T05:37:29;7.90;99.90
25504;DHT22;13410;52.114;5.718;2024-02-26T05:39:55;7.60;99.90
25504;DHT22;13410;52.114;5.718;2024-02-26T05:42:21;7.50;99.90
25504;DHT22;13410;52.114;5.718;2024-02-26T05:44:46;7.50;99.90
25504;DHT22;13410;52.114;5.718;2024-02-26T05:47:12;7.40;99.90
25504;DHT22;13410;52.114;5.718;2024-02-26T05:49:39;7.40;99.90
25504;DHT22;13410;52.114;5.718;2024-02-26T05:52:05;7.40;99.90
25504;DHT22;13410;52.114;5.718;2024-02-26T05:54:31;7.30;99.90
25504;DHT22;13410;52.114;5.718;2024-02-26T05:56:57;7.40;99.90
25504;DHT22;13410;52.114;5.718;2024-02-26T05:59:23;7.50;99.90
25504;DHT22;13410;52.114;5.718;2024-02-26T06:01:49;7.50;99.90
25504;DHT22;13410;52.114;5.718;2024-02-26T06:04:15;7.50;99.90
25504;DHT22;13410;52.114;5.718;2024-02-26T06:06:40;7.40;99.90
25504;DHT22;13410;52.114;5.718;2024-02-26T06:09:06;7.50;99.90
25504;DHT22;13410;52.114;5.718;2024-02-26T06:11:31;7.60;99.90
25504;DHT22;13410;52.114;5.718;2024-02-26T06:13:57;7.60;99.90
25504;DHT22;13410;52.114;5.718;2024-02-26T06:16:22;7.60;99.90
25504;DHT22;13410;52.114;5.718;2024-02-26T06:18:48;7.40;99.90
25504;DHT22;13410;52.114;5.718;2024-02-26T06:21:14;7.40;99.90
25504;DHT22;13410;52.114;5.718;2024-02-26T06:23:39;7.20;99.90
25504;DHT22;13410;52.114;5.718;2024-02-26T06:26:05;7.10;99.90
25504;DHT22;13410;52.114;5.718;2024-02-26T06:28:31;7.20;99.90
25504;DHT22;13410;52.114;5.718;2024-02-26T06:30:59;7.20;99.90
25504;DHT22;13410;52.114;5.718;2024-02-26T06:33:24;7.20;99.90
25504;DHT22;13410;52.114;5.718;2024-02-26T06:35:50;7.20;99.90
25504;DHT22;13410;52.114;5.718;2024-02-26T06:38:16;7.30;99.90
25504;DHT22;13410;52.114;5.718;2024-02-26T06:40:43;7.50;99.90
25504;DHT22;13410;52.114;5.718;2024-02-26T06:43:09;7.50;99.90
25504;DHT22;13410;52.114;5.718;2024-02-26T06:45:36;7.50;99.90
25504;DHT22;13410;52.114;5.718;2024-02-26T06:48:01;7.40;99.90
25504;DHT22;13410;52.114;5.718;2024-02-26T06:50:28;7.30;99.90
25504;DHT22;13410;52.114;5.718;2024-02-26T06:52:54;7.10;99.90
25504;DHT22;13410;52.114;5.718;2024-02-26T06:55:20;7.20;99.90
25504;DHT22;13410;52.114;5.718;2024-02-26T06:57:45;7.20;99.90
25504;DHT22;13410;52.114;5.718;2024-02-26T07:00:11;7.20;99.90
25504;DHT22;13410;52.114;5.718;2024-02-26T07:02:40;7.20;99.90
25504;DHT22;13410;52.114;5.718;2024-02-26T07:05:06;7.30;99.90
25504;DHT22;13410;52.114;5.718;2024-02-26T07:07:32;7.30;99.90
25504;DHT22;13410;52.114;5.718;2024-02-26T07:09:57;7.20;99.90
25504;DHT22;13410;52.114;5.718;2024-02-26T07:12:23;7.10;99.90
25504;DHT22;13410;52.114;5.718;2024-02-26T07:14:49;7.10;99.90
25504;DHT22;13410;52.114;5.718;2024-02-26T07:17:16;7.10;99.90
25504;DHT22;13410;52.114;5.718;2024-02-26T07:19:42;7.00;99.90
25504;DHT22;13410;52.114;5.718;2024-02-26T07:22:08;7.00;99.90
25504;DHT22;13410;52.114;5.718;2024-02-26T07:24:33;6.90;99.90
25504;DHT22;13410;52.114;5.718;2024-02-26T07:26:59;6.90;99.90
25504;DHT22;13410;52.114;5.718;2024-02-26T07:29:24;6.90;99.90
25504;DHT22;13410;52.114;5.718;2024-02-26T07:31:50;6.90;99.90
25504;DHT22;13410;52.114;5.718;2024-02-26T07:34:15;6.80;99.90
25504;DHT22;13410;52.114;5.718;2024-02-26T07:36:42;6.90;99.90
25504;DHT22;13410;52.114;5.718;2024-02-26T07:39:08;7.10;99.90
25504;DHT22;13410;52.114;5.718;2024-02-26T07:41:33;7.10;99.90
25504;DHT22;13410;52.114;5.718;2024-02-26T07:44:00;7.00;99.90
25504;DHT22;13410;52.114;5.718;2024-02-26T07:46:26;6.90;99.90
25504;DHT22;13410;52.114;5.718;2024-02-26T07:48:51;7.00;99.90
25504;DHT22;13410;52.114;5.718;2024-02-26T07:51:17;7.00;99.90
25504;DHT22;13410;52.114;5.718;2024-02-26T07:53:43;6.90;99.90
25504;DHT22;13410;52.114;5.718;2024-02-26T07:56:09;7.00;99.90
25504;DHT22;13410;52.114;5.718;2024-02-26T07:58:34;7.00;99.90
25504;DHT22;13410;52.114;5.718;2024-02-26T08:01:00;7.10;99.90
25504;DHT22;13410;52.114;5.718;2024-02-26T08:03:26;7.30;99.90
25504;DHT22;13410;52.114;5.718;2024-02-26T08:05:52;7.30;99.90
25504;DHT22;13410;52.114;5.718;2024-02-26T08:08:19;7.20;99.90
25504;DHT22;13410;52.114;5.718;2024-02-26T08:10:44;7.20;99.90
25504;DHT22;13410;52.114;5.718;2024-02-26T08:13:10;7.20;99.90
25504;DHT22;13410;52.114;5.718;2024-02-26T08:15:36;7.30;99.90
25504;DHT22;13410;52.114;5.718;2024-02-26T08:18:05;7.20;99.90
25504;DHT22;13410;52.114;5.718;2024-02-26T08:20:31;7.20;99.90
25504;DHT22;13410;52.114;5.718;2024-02-26T08:22:57;7.00;99.90
25504;DHT22;13410;52.114;5.718;2024-02-26T08:25:24;6.80;99.90
25504;DHT22;13410;52.114;5.718;2024-02-26T08:27:49;6.90;99.90
25504;DHT22;13410;52.114;5.718;2024-02-26T08:30:16;7.00;99.90
25504;DHT22;13410;52.114;5.718;2024-02-26T08:32:48;6.90;99.90
25504;DHT22;13410;52.114;5.718;2024-02-26T08:35:14;7.00;99.90
25504;DHT22;13410;52.114;5.718;2024-02-26T08:37:40;7.00;99.90
25504;DHT22;13410;52.114;5.718;2024-02-26T08:40:06;7.10;99.90
25504;DHT22;13410;52.114;5.718;2024-02-26T08:42:32;7.10;99.90
25504;DHT22;13410;52.114;5.718;2024-02-26T08:44:58;6.80;99.90
25504;DHT22;13410;52.114;5.718;2024-02-26T08:47:27;6.90;99.90
25504;DHT22;13410;52.114;5.718;2024-02-26T08:49:53;6.90;99.90
25504;DHT22;13410;52.114;5.718;2024-02-26T08:52:19;6.90;99.90
25504;DHT22;13410;52.114;5.718;2024-02-26T08:54:44;7.00;99.90
25504;DHT22;13410;52.114;5.718;2024-02-26T08:57:10;7.00;99.90
25504;DHT22;13410;52.114;5.718;2024-02-26T08:59:35;7.10;99.90
25504;DHT22;13410;52.114;5.718;2024-02-26T09:02:01;7.20;99.90
25504;DHT22;13410;52.114;5.718;2024-02-26T09:04:27;7.30;99.90
25504;DHT22;13410;52.114;5.718;2024-02-26T09:06:53;7.20;99.90
25504;DHT22;13410;52.114;5.718;2024-02-26T09:09:19;7.20;99.90
25504;DHT22;13410;52.114;5.718;2024-02-26T09:11:45;7.20;99.90
25504;DHT22;13410;52.114;5.718;2024-02-26T09:14:11;7.20;99.90
25504;DHT22;13410;52.114;5.718;2024-02-26T09:16:37;7.10;99.90
25504;DHT22;13410;52.114;5.718;2024-02-26T09:19:02;7.10;99.90
25504;DHT22;13410;52.114;5.718;2024-02-26T09:21:28;7.20;99.90
25504;DHT22;13410;52.114;5.718;2024-02-26T09:23:54;7.20;99.90
25504;DHT22;13410;52.114;5.718;2024-02-26T09:26:19;7.20;99.90
25504;DHT22;13410;52.114;5.718;2024-02-26T09:28:45;7.30;99.90
25504;DHT22;13410;52.114;5.718;2024-02-26T09:31:11;7.30;99.90
25504;DHT22;13410;52.114;5.718;2024-02-26T09:33:38;7.40;99.90
25504;DHT22;13410;52.114;5.718;2024-02-26T09:36:04;7.30;99.90
25504;DHT22;13410;52.114;5.718;2024-02-26T09:38:31;7.30;99.90
25504;DHT22;13410;52.114;5.718;2024-02-26T09:41:02;7.30;99.90
25504;DHT22;13410;52.114;5.718;2024-02-26T09:43:36;7.30;99.90
25504;DHT22;13410;52.114;5.718;2024-02-26T09:46:05;7.20;99.90
25504;DHT22;13410;52.114;5.718;2024-02-26T09:48:32;7.40;99.90
25504;DHT22;13410;52.114;5.718;2024-02-26T09:51:01;7.40;99.90
25504;DHT22;13410;52.114;5.718;2024-02-26T09:53:28;7.40;99.90
25504;DHT22;13410;52.114;5.718;2024-02-26T09:55:54;7.30;99.90
25504;DHT22;13410;52.114;5.718;2024-02-26T09:58:20;7.30;99.90
25504;DHT22;13410;52.114;5.718;2024-02-26T10:00:51;7.20;99.90
25504;DHT22;13410;52.114;5.718;2024-02-26T10:03:21;7.10;99.90
25504;DHT22;13410;52.114;5.718;2024-02-26T10:05:48;7.20;99.90
25504;DHT22;13410;52.114;5.718;2024-02-26T10:08:15;7.30;99.90
25504;DHT22;13410;52.114;5.718;2024-02-26T10:10:44;7.40;99.90
25504;DHT22;13410;52.114;5.718;2024-02-26T10:13:10;7.50;99.90
25504;DHT22;13410;52.114;5.718;2024-02-26T10:15:37;7.30;99.90
25504;DHT22;13410;52.114;5.718;2024-02-26T10:18:06;7.40;99.90
25504;DHT22;13410;52.114;5.718;2024-02-26T10:20:35;7.30;99.90
25504;DHT22;13410;52.114;5.718;2024-02-26T10:23:06;7.20;99.90
25504;DHT22;13410;52.114;5.718;2024-02-26T10:25:32;7.30;99.90
25504;DHT22;13410;52.114;5.718;2024-02-26T10:28:01;7.30;99.90
25504;DHT22;13410;52.114;5.718;2024-02-26T10:30:28;7.30;99.90
25504;DHT22;13410;52.114;5.718;2024-02-26T10:32:54;7.30;99.90
25504;DHT22;13410;52.114;5.718;2024-02-26T10:35:20;7.40;99.90
25504;DHT22;13410;52.114;5.718;2024-02-26T10:37:46;7.40;99.90
25504;DHT22;13410;52.114;5.718;2024-02-26T10:40:13;7.40;99.90
25504;DHT22;13410;52.114;5.718;2024-02-26T10:42:39;7.40;99.90
25504;DHT22;13410;52.114;5.718;2024-02-26T10:45:07;7.30;99.90
25504;DHT22;13410;52.114;5.718;2024-02-26T10:47:34;7.40;99.90
25504;DHT22;13410;52.114;5.718;2024-02-26T10:50:05;7.40;99.90
25504;DHT22;13410;52.114;5.718;2024-02-26T10:52:36;7.30;99.90
25504;DHT22;13410;52.114;5.718;2024-02-26T10:55:03;7.40;99.90
25504;DHT22;13410;52.114;5.718;2024-02-26T10:57:33;7.30;99.90
25504;DHT22;13410;52.114;5.718;2024-02-26T11:00:01;7.50;99.90
25504;DHT22;13410;52.114;5.718;2024-02-26T11:02:30;7.60;99.90
25504;DHT22;13410;52.114;5.718;2024-02-26T11:04:58;7.70;99.90
25504;DHT22;13410;52.114;5.718;2024-02-26T11:07:25;7.60;99.90
25504;DHT22;13410;52.114;5.718;2024-02-26T11:09:52;7.60;99.90
25504;DHT22;13410;52.114;5.718;2024-02-26T11:12:19;7.50;99.90
25504;DHT22;13410;52.114;5.718;2024-02-26T11:14:47;7.40;99.90
25504;DHT22;13410;52.114;5.718;2024-02-26T11:17:15;7.40;99.90
25504;DHT22;13410;52.114;5.718;2024-02-26T11:19:43;7.50;99.90
25504;DHT22;13410;52.114;5.718;2024-02-26T11:22:09;7.70;99.90
25504;DHT22;13410;52.114;5.718;2024-02-26T11:24:35;7.70;99.90
25504;DHT22;13410;52.114;5.718;2024-02-26T11:27:06;7.60;99.90
25504;DHT22;13410;52.114;5.718;2024-02-26T11:29:39;7.50;99.90
25504;DHT22;13410;52.114;5.718;2024-02-26T11:32:06;7.40;99.90
25504;DHT22;13410;52.114;5.718;2024-02-26T11:34:32;7.50;99.90
25504;DHT22;13410;52.114;5.718;2024-02-26T11:36:58;7.50;99.90
25504;DHT22;13410;52.114;5.718;2024-02-26T11:39:33;7.60;99.90
25504;DHT22;13410;52.114;5.718;2024-02-26T11:42:14;7.50;99.90
25504;DHT22;13410;52.114;5.718;2024-02-26T11:44:40;7.60;99.90
25504;DHT22;13410;52.114;5.718;2024-02-26T11:47:17;7.60;99.90
25504;DHT22;13410;52.114;5.718;2024-02-26T11:49:43;7.60;99.90
25504;DHT22;13410;52.114;5.718;2024-02-26T11:52:10;7.40;99.90
25504;DHT22;13410;52.114;5.718;2024-02-26T11:54:50;7.40;99.90
25504;DHT22;13410;52.114;5.718;2024-02-26T11:57:30;7.50;99.90
25504;DHT22;13410;52.114;5.718;2024-02-26T12:02:50;7.70;99.90
25504;DHT22;13410;52.114;5.718;2024-02-26T12:05:23;7.60;99.90
25504;DHT22;13410;52.114;5.718;2024-02-26T12:07:53;7.70;99.90
25504;DHT22;13410;52.114;5.718;2024-02-26T12:10:31;7.70;99.90
25504;DHT22;13410;52.114;5.718;2024-02-26T12:13:08;7.70;99.90
25504;DHT22;13410;52.114;5.718;2024-02-26T12:15:38;7.60;99.90
25504;DHT22;13410;52.114;5.718;2024-02-26T12:18:06;7.50;99.90
25504;DHT22;13410;52.114;5.718;2024-02-26T12:20:33;7.50;99.90
25504;DHT22;13410;52.114;5.718;2024-02-26T12:23:02;7.60;99.90
25504;DHT22;13410;52.114;5.718;2024-02-26T12:25:29;7.50;99.90
25504;DHT22;13410;52.114;5.718;2024-02-26T12:27:55;7.50;99.90
25504;DHT22;13410;52.114;5.718;2024-02-26T12:30:22;7.50;99.90
25504;DHT22;13410;52.114;5.718;2024-02-26T12:32:52;7.40;99.90
25504;DHT22;13410;52.114;5.718;2024-02-26T12:35:22;7.60;99.90
25504;DHT22;13410;52.114;5.718;2024-02-26T12:37:48;7.50;99.90
25504;DHT22;13410;52.114;5.718;2024-02-26T12:40:14;7.60;99.90
25504;DHT22;13410;52.114;5.718;2024-02-26T12:42:39;7.60;99.90
25504;DHT22;13410;52.114;5.718;2024-02-26T12:45:15;7.40;99.90
25504;DHT22;13410;52.114;5.718;2024-02-26T12:47:45;7.40;99.90
25504;DHT22;13410;52.114;5.718;2024-02-26T12:50:11;7.60;99.90
25504;DHT22;13410;52.114;5.718;2024-02-26T12:52:47;7.50;99.90
25504;DHT22;13410;52.114;5.718;2024-02-26T12:55:20;7.60;99.90
25504;DHT22;13410;52.114;5.718;2024-02-26T12:57:46;7.30;99.90
25504;DHT22;13410;52.114;5.718;2024-02-26T13:00:17;7.40;99.90
25504;DHT22;13410;52.114;5.718;2024-02-26T13:02:44;7.40;99.90
25504;DHT22;13410;52.114;5.718;2024-02-26T13:05:12;7.50;99.90
25504;DHT22;13410;52.114;5.718;2024-02-26T13:07:42;7.60;99.90
25504;DHT22;13410;52.114;5.718;2024-02-26T13:10:09;7.60;99.90
25504;DHT22;13410;52.114;5.718;2024-02-26T13:12:38;7.60;99.90
25504;DHT22;13410;52.114;5.718;2024-02-26T13:15:07;7.60;99.90
25504;DHT22;13410;52.114;5.718;2024-02-26T13:17:33;7.70;99.90
25504;DHT22;13410;52.114;5.718;2024-02-26T13:19:59;7.70;99.90
25504;DHT22;13410;52.114;5.718;2024-02-26T13:22:25;7.60;99.90
25504;DHT22;13410;52.114;5.718;2024-02-26T13:24:55;7.60;99.90
25504;DHT22;13410;52.114;5.718;2024-02-26T13:27:23;7.60;99.90
25504;DHT22;13410;52.114;5.718;2024-02-26T13:30:02;7.50;99.90
25504;DHT22;13410;52.114;5.718;2024-02-26T13:32:28;7.80;99.90
25504;DHT22;13410;52.114;5.718;2024-02-26T13:35:13;8.10;99.90
25504;DHT22;13410;52.114;5.718;2024-02-26T13:37:39;8.20;99.90
25504;DHT22;13410;52.114;5.718;2024-02-26T13:40:10;8.10;99.90
25504;DHT22;13410;52.114;5.718;2024-02-26T13:42:37;8.00;99.90
25504;DHT22;13410;52.114;5.718;2024-02-26T13:45:03;8.00;99.90
25504;DHT22;13410;52.114;5.718;2024-02-26T13:47:33;8.00;99.90
25504;DHT22;13410;52.114;5.718;2024-02-26T13:49:59;8.00;99.90
25504;DHT22;13410;52.114;5.718;2024-02-26T13:52:26;7.80;99.90
25504;DHT22;13410;52.114;5.718;2024-02-26T13:54:51;7.80;99.90
25504;DHT22;13410;52.114;5.718;2024-02-26T13:57:18;8.00;99.90
25504;DHT22;13410;52.114;5.718;2024-02-26T13:59:44;7.90;99.90
25504;DHT22;13410;52.114;5.718;2024-02-26T14:02:10;8.00;99.90
25504;DHT22;13410;52.114;5.718;2024-02-26T14:04:36;8.10;99.90
25504;DHT22;13410;52.114;5.718;2024-02-26T14:07:03;8.10;99.90
25504;DHT22;13410;52.114;5.718;2024-02-26T14:09:30;8.20;99.90
25504;DHT22;13410;52.114;5.718;2024-02-26T14:11:57;8.20;99.90
25504;DHT22;13410;52.114;5.718;2024-02-26T14:14:23;8.30;99.90
25504;DHT22;13410;52.114;5.718;2024-02-26T14:16:49;8.40;99.90
25504;DHT22;13410;52.114;5.718;2024-02-26T14:19:15;8.40;99.90
25504;DHT22;13410;52.114;5.718;2024-02-26T14:21:40;8.30;99.90
25504;DHT22;13410;52.114;5.718;2024-02-26T14:24:06;8.40;99.90
25504;DHT22;13410;52.114;5.718;2024-02-26T14:26:31;8.60;99.90
25504;DHT22;13410;52.114;5.718;2024-02-26T14:28:57;8.70;99.90
25504;DHT22;13410;52.114;5.718;2024-02-26T14:31:23;8.90;99.90
25504;DHT22;13410;52.114;5.718;2024-02-26T14:33:48;8.70;99.90
25504;DHT22;13410;52.114;5.718;2024-02-26T14:36:15;8.70;99.90
25504;DHT22;13410;52.114;5.718;2024-02-26T14:38:41;8.50;99.90
25504;DHT22;13410;52.114;5.718;2024-02-26T14:41:06;8.60;99.90
25504;DHT22;13410;52.114;5.718;2024-02-26T14:43:32;8.80;99.90
25504;DHT22;13410;52.114;5.718;2024-02-26T14:45:58;8.70;99.90
25504;DHT22;13410;52.114;5.718;2024-02-26T14:48:24;8.60;99.90
25504;DHT22;13410;52.114;5.718;2024-02-26T14:50:50;8.80;99.90
25504;DHT22;13410;52.114;5.718;2024-02-26T14:53:16;8.70;99.90
25504;DHT22;13410;52.114;5.718;2024-02-26T14:55:42;8.50;99.90
25504;DHT22;13410;52.114;5.718;2024-02-26T14:58:08;8.60;99.90
25504;DHT22;13410;52.114;5.718;2024-02-26T15:00:36;8.50;99.90
25504;DHT22;13410;52.114;5.718;2024-02-26T15:03:02;8.30;99.90
25504;DHT22;13410;52.114;5.718;2024-02-26T15:05:28;8.50;99.90
25504;DHT22;13410;52.114;5.718;2024-02-26T15:07:54;8.40;99.90
25504;DHT22;13410;52.114;5.718;2024-02-26T15:10:20;8.50;99.90
25504;DHT22;13410;52.114;5.718;2024-02-26T15:12:45;8.70;99.90
25504;DHT22;13410;52.114;5.718;2024-02-26T15:15:11;8.50;99.90
25504;DHT22;13410;52.114;5.718;2024-02-26T15:17:37;8.60;99.90
25504;DHT22;13410;52.114;5.718;2024-02-26T15:20:02;8.70;99.90
25504;DHT22;13410;52.114;5.718;2024-02-26T15:22:28;8.80;99.90
25504;DHT22;13410;52.114;5.718;2024-02-26T15:24:54;8.80;99.90
25504;DHT22;13410;52.114;5.718;2024-02-26T15:27:19;8.80;99.90
25504;DHT22;13410;52.114;5.718;2024-02-26T15:29:45;8.60;99.90
25504;DHT22;13410;52.114;5.718;2024-02-26T15:32:11;8.60;99.90
25504;DHT22;13410;52.114;5.718;2024-02-26T15:34:37;8.30;99.90
25504;DHT22;13410;52.114;5.718;2024-02-26T15:37:03;8.40;99.90
25504;DHT22;13410;52.114;5.718;2024-02-26T15:39:29;8.60;99.90
25504;DHT22;13410;52.114;5.718;2024-02-26T15:41:54;8.80;99.90
25504;DHT22;13410;52.114;5.718;2024-02-26T15:44:20;9.00;99.90